This is the latest recevied weather packets stored in our database for station/object KN6CW-3. If no packets are shown the sender has not sent any weather packets the latest 10 day(s).
| Time | Temp. | Humidity | Pressure | Rain* | Wind** | Luminosity | Snow |
|---|---|---|---|---|---|---|---|
| 1777750218 | 10.56° C | 44% | 1012.1 hPa | 0 mm | - | 274 W/m² | - |
| 1777749917 | 11.11° C | 44% | 1012.1 hPa | 0 mm | - | 1030 W/m² | - |
| 1777749617 | 10.56° C | 48% | 1012.2 hPa | 0 mm | - | 566 W/m² | - |
| 1777749317 | 10° C | 48% | 1012.3 hPa | 0 mm | - | 396 W/m² | - |
| 1777749017 | 9.44° C | 48% | 1012.5 hPa | 0 mm | - | 301 W/m² | - |
| 1777748716 | 9.44° C | 48% | 1012.5 hPa | 0 mm | - | 311 W/m² | - |
| 1777748416 | 9.44° C | 47% | 1012.5 hPa | 0 mm | - | 279 W/m² | - |
| 1777748116 | 10° C | 46% | 1012.6 hPa | 0 mm | - | 229 W/m² | - |
| 1777747816 | 10° C | 47% | 1012.7 hPa | 0 mm | - | 265 W/m² | - |
| 1777747515 | 10° C | 48% | 1012.7 hPa | 0 mm | - | 302 W/m² | - |
| 1777747215 | 10° C | 47% | 1012.7 hPa | 0 mm | - | 329 W/m² | - |
| 1777746915 | 10.56° C | 46% | 1012.8 hPa | 0 mm | - | 301 W/m² | - |
| 1777746614 | 10.56° C | 45% | 1012.7 hPa | 0 mm | - | 318 W/m² | - |
| 1777746314 | 11.11° C | 44% | 1012.7 hPa | 0 mm | - | 315 W/m² | - |
| 1777746014 | 11.67° C | 46% | 1012.7 hPa | 0 mm | - | 323 W/m² | - |
| 1777745713 | 11.11° C | 45% | 1012.7 hPa | 0 mm | - | 601 W/m² | - |
| 1777745413 | 11.11° C | 45% | 1012.7 hPa | 0 mm | - | 427 W/m² | - |
| 1777745113 | 11.11° C | 46% | 1012.7 hPa | 0 mm | - | 693 W/m² | - |
| 1777744813 | 11.67° C | 46% | 1012.7 hPa | 0 mm | - | 418 W/m² | - |
| 1777744512 | 11.11° C | 47% | 1012.6 hPa | 0 mm | - | 1201 W/m² | - |
| 1777744212 | 10.56° C | 45% | 1012.7 hPa | 0 mm | - | 1118 W/m² | - |
| 1777743912 | 10.56° C | 45% | 1012.8 hPa | 0 mm | - | 446 W/m² | - |
| 1777743611 | 10.56° C | 45% | 1012.8 hPa | 0 mm | - | 1118 W/m² | - |
| 1777743311 | 10.56° C | 48% | 1012.7 hPa | 0 mm | - | 1109 W/m² | - |
| 1777743013 | 10° C | 46% | 1012.8 hPa | 0 mm | - | 385 W/m² | - |
* Rain latest hour (hover to see other rain measurements)
** Current wind speed in m/s (hover to see current wind gust speed)